SAS1585 EKCH-LEBL
Flight info
| Callsign | SAS1585 |
|---|---|
| Flight time | N/A |
| Altitude | 35000 |
| Route | NEXEN T503 GIMRU DCT KUXOD N850 MICOS DCT SAS DCT BOMBI DCT GIGET DCT ABUKA DCT KRH DCT NATOR DCT LUTIX DCT BENOT DCT NEMOS DCT GEVEA DCT INCUS DCT BALSI DCT ETIDO DCT KURIR DCT PEQEF DCT NAKIS DCT BOLSA DCT PPG DCT ALBER |
| Aircraft | A321/M-SDE3FGHIRWY/LB1 |
Departure
| Time | 2026-04-30 13:26 |
|---|---|
| Airport | Copenhagen Kastrup Airport (EKCH) |
Arrival
| Time | N/A |
|---|---|
| Airport | Josep Tarradellas Barcelona-El Prat Airport (LEBL) |
| Time | Latitude | Longitude | Altitude | Speed | Heading |
|---|---|---|---|---|---|
| 2026-04-30 13:11 | 55.62608 | 12.64894 | 24 ft | 0 kts | 92° |
| 2026-04-30 13:15 | 55.62608 | 12.64892 | 24 ft | 3 kts | 92° |
| 2026-04-30 13:15 | 55.62609 | 12.64859 | 24 ft | 3 kts | 97° |
| 2026-04-30 13:16 | 55.62614 | 12.64825 | 24 ft | 3 kts | 127° |
| 2026-04-30 13:16 | 55.62627 | 12.64801 | 27 ft | 3 kts | 151° |
| 2026-04-30 13:16 | 55.62645 | 12.64789 | 26 ft | 3 kts | 181° |
| 2026-04-30 13:17 | 55.62655 | 12.64790 | 26 ft | 0 kts | 196° |
| 2026-04-30 13:20 | 55.62650 | 12.64788 | 26 ft | 4 kts | 192° |
| 2026-04-30 13:20 | 55.62533 | 12.64771 | 25 ft | 28 kts | 179° |
| 2026-04-30 13:21 | 55.62329 | 12.64786 | 24 ft | 29 kts | 176° |
| 2026-04-30 13:21 | 55.62143 | 12.64690 | 24 ft | 28 kts | 213° |
| 2026-04-30 13:21 | 55.61973 | 12.64509 | 24 ft | 28 kts | 200° |
| 2026-04-30 13:22 | 55.61601 | 12.64481 | 25 ft | 27 kts | 211° |
| 2026-04-30 13:22 | 55.61445 | 12.64296 | 25 ft | 27 kts | 214° |
| 2026-04-30 13:22 | 55.61129 | 12.63921 | 25 ft | 27 kts | 212° |
| 2026-04-30 13:23 | 55.60969 | 12.63740 | 25 ft | 27 kts | 213° |
| 2026-04-30 13:23 | 55.60653 | 12.63372 | 24 ft | 27 kts | 214° |
| 2026-04-30 13:24 | 55.60452 | 12.63102 | 24 ft | 9 kts | 202° |
| 2026-04-30 13:24 | 55.60361 | 12.63237 | 24 ft | 9 kts | 129° |
| 2026-04-30 13:25 | 55.60364 | 12.63383 | 28 ft | 9 kts | 42° |
| 2026-04-30 13:25 | 55.61143 | 12.64583 | 25 ft | 146 kts | 41° |
| 2026-04-30 13:26 | 55.64027 | 12.69082 | 1782 ft | 212 kts | 38° |
| 2026-04-30 13:26 | 55.66458 | 12.72772 | 3149 ft | 242 kts | 36° |
| 2026-04-30 13:27 | 55.69102 | 12.76790 | 4997 ft | 258 kts | 45° |
| 2026-04-30 13:28 | 55.69405 | 12.86032 | 7779 ft | 285 kts | 124° |
| 2026-04-30 13:28 | 55.65936 | 12.89630 | 9425 ft | 300 kts | 158° |
| 2026-04-30 13:28 | 55.63953 | 12.90836 | 10224 ft | 304 kts | 163° |
| 2026-04-30 13:29 | 55.59593 | 12.90405 | 10963 ft | 342 kts | 202° |
| 2026-04-30 13:29 | 55.55707 | 12.84762 | 11007 ft | 388 kts | 227° |
| 2026-04-30 13:30 | 55.49882 | 12.73923 | 12178 ft | 415 kts | 229° |
| 2026-04-30 13:31 | 55.46140 | 12.66127 | 13221 ft | 424 kts | 231° |
| 2026-04-30 13:31 | 55.40450 | 12.53869 | 14696 ft | 437 kts | 231° |
| 2026-04-30 13:32 | 55.36506 | 12.45604 | 15644 ft | 444 kts | 230° |
| 2026-04-30 13:32 | 55.32476 | 12.37284 | 16614 ft | 450 kts | 230° |
| 2026-04-30 13:33 | 55.28387 | 12.28862 | 17566 ft | 456 kts | 230° |
| 2026-04-30 13:33 | 55.24242 | 12.20338 | 18504 ft | 463 kts | 230° |
| 2026-04-30 13:34 | 55.22143 | 12.16024 | 18940 ft | 466 kts | 230° |
| 2026-04-30 13:34 | 55.14690 | 12.05064 | 20202 ft | 472 kts | 216° |
| 2026-04-30 13:35 | 55.12028 | 12.01675 | 20635 ft | 475 kts | 216° |
| 2026-04-30 13:35 | 55.06671 | 11.94848 | 21445 ft | 479 kts | 216° |
| 2026-04-30 13:36 | 55.01269 | 11.87965 | 22154 ft | 483 kts | 216° |
| 2026-04-30 13:36 | 54.98548 | 11.84516 | 22478 ft | 485 kts | 216° |
| 2026-04-30 13:36 | 54.93067 | 11.77591 | 23080 ft | 488 kts | 216° |
| 2026-04-30 13:37 | 54.90314 | 11.74120 | 23384 ft | 490 kts | 216° |
| 2026-04-30 13:37 | 54.84777 | 11.67157 | 23969 ft | 493 kts | 216° |
| 2026-04-30 13:38 | 54.79189 | 11.60171 | 24470 ft | 496 kts | 216° |
| 2026-04-30 13:38 | 54.76382 | 11.56664 | 24711 ft | 498 kts | 216° |
| 2026-04-30 13:38 | 54.70747 | 11.49643 | 25159 ft | 500 kts | 216° |
| 2026-04-30 13:39 | 54.65128 | 11.42656 | 25562 ft | 502 kts | 216° |
| 2026-04-30 13:39 | 54.59447 | 11.35614 | 26008 ft | 503 kts | 216° |
| 2026-04-30 13:40 | 54.56630 | 11.32053 | 26284 ft | 501 kts | 219° |
| 2026-04-30 13:40 | 54.54067 | 11.27998 | 26546 ft | 499 kts | 226° |
| 2026-04-30 13:40 | 54.51643 | 11.23736 | 26814 ft | 498 kts | 226° |
| 2026-04-30 13:40 | 54.49137 | 11.19616 | 27075 ft | 498 kts | 220° |
| 2026-04-30 13:41 | 54.46340 | 11.16113 | 27340 ft | 498 kts | 212° |
| 2026-04-30 13:41 | 54.43346 | 11.13139 | 27590 ft | 497 kts | 210° |
| 2026-04-30 13:41 | 54.40342 | 11.10196 | 27864 ft | 496 kts | 210° |
| 2026-04-30 13:41 | 54.37347 | 11.07256 | 28136 ft | 496 kts | 210° |
| 2026-04-30 13:42 | 54.34357 | 11.04309 | 28404 ft | 495 kts | 210° |
| 2026-04-30 13:42 | 54.31352 | 11.01429 | 28675 ft | 494 kts | 206° |
| 2026-04-30 13:42 | 54.24933 | 10.97302 | 29206 ft | 492 kts | 198° |
| 2026-04-30 13:43 | 54.21691 | 10.95461 | 29475 ft | 492 kts | 198° |
| 2026-04-30 13:43 | 54.18445 | 10.93616 | 29748 ft | 491 kts | 198° |
| 2026-04-30 13:43 | 54.15208 | 10.91768 | 30013 ft | 490 kts | 198° |
| 2026-04-30 13:43 | 54.12020 | 10.89946 | 30267 ft | 490 kts | 198° |
| 2026-04-30 13:44 | 54.08749 | 10.88080 | 30541 ft | 489 kts | 198° |
| 2026-04-30 13:44 | 54.05570 | 10.86275 | 30755 ft | 488 kts | 198° |
| 2026-04-30 13:44 | 54.02346 | 10.84453 | 30975 ft | 487 kts | 198° |
| 2026-04-30 13:44 | 53.99127 | 10.82636 | 31191 ft | 487 kts | 198° |
| 2026-04-30 13:45 | 53.92700 | 10.79019 | 31641 ft | 485 kts | 198° |
| 2026-04-30 13:45 | 53.89498 | 10.77220 | 31853 ft | 484 kts | 198° |
| 2026-04-30 13:45 | 53.86300 | 10.75424 | 32071 ft | 484 kts | 198° |
| 2026-04-30 13:46 | 53.83111 | 10.73630 | 32285 ft | 483 kts | 198° |
| 2026-04-30 13:46 | 53.79926 | 10.71837 | 32499 ft | 482 kts | 198° |
| 2026-04-30 13:46 | 53.76743 | 10.70052 | 32712 ft | 481 kts | 198° |
| 2026-04-30 13:46 | 53.73568 | 10.68278 | 32924 ft | 480 kts | 198° |
| 2026-04-30 13:47 | 53.70397 | 10.66513 | 33122 ft | 480 kts | 197° |
| 2026-04-30 13:47 | 53.67227 | 10.64752 | 33325 ft | 479 kts | 197° |
| 2026-04-30 13:47 | 53.64061 | 10.62995 | 33521 ft | 478 kts | 197° |
| 2026-04-30 13:47 | 53.60905 | 10.61243 | 33727 ft | 478 kts | 197° |
| 2026-04-30 13:48 | 53.57748 | 10.59491 | 33920 ft | 477 kts | 197° |
| 2026-04-30 13:48 | 53.54597 | 10.57747 | 34109 ft | 477 kts | 197° |
| 2026-04-30 13:48 | 53.51486 | 10.56029 | 34286 ft | 476 kts | 197° |
| 2026-04-30 13:48 | 53.48340 | 10.54296 | 34441 ft | 476 kts | 197° |
| 2026-04-30 13:49 | 53.45189 | 10.52565 | 34473 ft | 478 kts | 197° |
| 2026-04-30 13:49 | 53.38863 | 10.49096 | 34469 ft | 478 kts | 197° |
| 2026-04-30 13:50 | 53.32494 | 10.45611 | 34470 ft | 483 kts | 197° |
| 2026-04-30 13:50 | 53.22890 | 10.40378 | 34472 ft | 485 kts | 197° |
| 2026-04-30 13:51 | 53.16476 | 10.36887 | 34475 ft | 485 kts | 197° |
| 2026-04-30 13:51 | 53.10049 | 10.33409 | 34479 ft | 486 kts | 197° |
| 2026-04-30 13:52 | 53.03610 | 10.29932 | 34482 ft | 486 kts | 197° |
| 2026-04-30 13:52 | 52.97167 | 10.26467 | 34480 ft | 487 kts | 197° |
| 2026-04-30 13:53 | 52.90720 | 10.23011 | 34484 ft | 487 kts | 196° |
| 2026-04-30 13:53 | 52.84272 | 10.19571 | 34481 ft | 487 kts | 197° |
| 2026-04-30 13:54 | 52.77867 | 10.16160 | 34489 ft | 487 kts | 196° |
| 2026-04-30 13:54 | 52.71411 | 10.12735 | 34485 ft | 487 kts | 196° |
| 2026-04-30 13:55 | 52.64952 | 10.09310 | 34487 ft | 488 kts | 196° |
| 2026-04-30 13:55 | 52.58491 | 10.05899 | 34483 ft | 488 kts | 196° |
| 2026-04-30 13:56 | 52.52022 | 10.02495 | 34489 ft | 488 kts | 196° |
| 2026-04-30 13:56 | 52.45553 | 9.99098 | 34486 ft | 488 kts | 196° |
| 2026-04-30 13:57 | 52.39083 | 9.95711 | 34486 ft | 488 kts | 196° |
| 2026-04-30 13:57 | 52.32608 | 9.92333 | 34490 ft | 488 kts | 196° |
| 2026-04-30 13:58 | 52.22931 | 9.87318 | 34488 ft | 488 kts | 195° |
| 2026-04-30 13:59 | 52.16446 | 9.83962 | 34479 ft | 489 kts | 195° |
| 2026-04-30 13:59 | 52.09955 | 9.80603 | 34478 ft | 489 kts | 195° |
| 2026-04-30 14:00 | 52.03517 | 9.77277 | 34476 ft | 489 kts | 195° |
| 2026-04-30 14:00 | 51.93778 | 9.72285 | 34474 ft | 489 kts | 195° |
| 2026-04-30 14:01 | 51.87277 | 9.68973 | 34473 ft | 489 kts | 195° |
| 2026-04-30 14:01 | 51.80783 | 9.65667 | 34465 ft | 490 kts | 195° |
| 2026-04-30 14:02 | 51.74278 | 9.62351 | 34465 ft | 490 kts | 195° |
| 2026-04-30 14:02 | 51.67777 | 9.59042 | 34461 ft | 490 kts | 195° |
| 2026-04-30 14:03 | 51.61318 | 9.55782 | 34466 ft | 490 kts | 195° |
| 2026-04-30 14:03 | 51.54817 | 9.52514 | 34465 ft | 490 kts | 195° |
| 2026-04-30 14:04 | 51.48309 | 9.49242 | 34462 ft | 490 kts | 195° |
| 2026-04-30 14:04 | 51.41804 | 9.45989 | 34460 ft | 490 kts | 195° |
| 2026-04-30 14:05 | 51.35295 | 9.42755 | 34465 ft | 490 kts | 195° |
| 2026-04-30 14:05 | 51.28785 | 9.39519 | 34461 ft | 490 kts | 195° |
| 2026-04-30 14:06 | 51.19022 | 9.34683 | 34460 ft | 490 kts | 195° |
| 2026-04-30 14:07 | 51.10352 | 9.30409 | 34459 ft | 490 kts | 194° |
| 2026-04-30 14:08 | 51.00574 | 9.25609 | 34461 ft | 490 kts | 194° |
| 2026-04-30 14:08 | 50.90806 | 9.20815 | 34445 ft | 490 kts | 194° |
| 2026-04-30 14:09 | 50.84290 | 9.17636 | 34436 ft | 490 kts | 194° |
| 2026-04-30 14:10 | 50.74526 | 9.12898 | 34414 ft | 489 kts | 194° |
| 2026-04-30 14:10 | 50.68062 | 9.09766 | 34414 ft | 489 kts | 194° |
| 2026-04-30 14:11 | 50.61580 | 9.06641 | 34410 ft | 489 kts | 194° |
| 2026-04-30 14:11 | 50.55043 | 9.03501 | 34413 ft | 489 kts | 194° |
| 2026-04-30 14:12 | 50.48537 | 9.00380 | 34408 ft | 489 kts | 194° |
| 2026-04-30 14:12 | 50.42027 | 8.97264 | 34405 ft | 489 kts | 194° |
| 2026-04-30 14:13 | 50.35516 | 8.94154 | 34403 ft | 489 kts | 194° |
| 2026-04-30 14:13 | 50.29003 | 8.91059 | 34399 ft | 489 kts | 194° |
| 2026-04-30 14:14 | 50.22498 | 8.87972 | 34392 ft | 489 kts | 194° |
| 2026-04-30 14:14 | 50.15989 | 8.84890 | 34387 ft | 489 kts | 194° |
| 2026-04-30 14:15 | 50.09487 | 8.81815 | 34380 ft | 488 kts | 194° |
| 2026-04-30 14:15 | 50.02904 | 8.79426 | 34383 ft | 484 kts | 184° |
| 2026-04-30 14:16 | 49.96274 | 8.78083 | 34380 ft | 484 kts | 184° |
| 2026-04-30 14:16 | 49.89595 | 8.76709 | 34380 ft | 484 kts | 185° |
| 2026-04-30 14:17 | 49.82921 | 8.75314 | 34378 ft | 484 kts | 185° |
| 2026-04-30 14:17 | 49.76248 | 8.73917 | 34376 ft | 484 kts | 185° |
| 2026-04-30 14:18 | 49.69573 | 8.72540 | 34373 ft | 484 kts | 184° |
| 2026-04-30 14:18 | 49.59554 | 8.70526 | 34376 ft | 484 kts | 184° |
| 2026-04-30 14:19 | 49.49561 | 8.68533 | 34381 ft | 484 kts | 184° |
| 2026-04-30 14:20 | 49.42881 | 8.67192 | 34379 ft | 484 kts | 184° |
| 2026-04-30 14:20 | 49.32864 | 8.65156 | 34370 ft | 484 kts | 184° |
| 2026-04-30 14:21 | 49.26180 | 8.63795 | 34362 ft | 484 kts | 184° |
| 2026-04-30 14:22 | 49.16200 | 8.61795 | 34333 ft | 484 kts | 184° |
| 2026-04-30 14:22 | 49.06186 | 8.59789 | 34321 ft | 484 kts | 184° |
| 2026-04-30 14:23 | 48.92860 | 8.56643 | 34312 ft | 486 kts | 189° |
| 2026-04-30 14:24 | 48.82961 | 8.53173 | 34305 ft | 486 kts | 190° |
| 2026-04-30 14:25 | 48.69787 | 8.48863 | 34299 ft | 485 kts | 189° |
| 2026-04-30 14:26 | 48.59875 | 8.45722 | 34295 ft | 485 kts | 189° |
| 2026-04-30 14:27 | 48.49977 | 8.42560 | 34289 ft | 484 kts | 189° |
| 2026-04-30 14:27 | 48.43384 | 8.40464 | 34286 ft | 484 kts | 189° |
| 2026-04-30 14:28 | 48.33493 | 8.37334 | 34278 ft | 484 kts | 189° |
| 2026-04-30 14:28 | 48.26900 | 8.35247 | 34278 ft | 484 kts | 189° |
| 2026-04-30 14:29 | 48.15060 | 8.30115 | 34273 ft | 489 kts | 207° |
| 2026-04-30 14:31 | 47.99743 | 8.15476 | 34265 ft | 491 kts | 211° |
| 2026-04-30 14:31 | 47.91111 | 8.07231 | 34262 ft | 491 kts | 211° |
| 2026-04-30 14:32 | 47.82491 | 7.98982 | 34250 ft | 490 kts | 211° |
| 2026-04-30 14:33 | 47.76784 | 7.93554 | 34242 ft | 490 kts | 211° |
| 2026-04-30 14:33 | 47.68167 | 7.85380 | 34228 ft | 489 kts | 211° |
| 2026-04-30 14:34 | 47.62433 | 7.79949 | 34224 ft | 489 kts | 211° |
| 2026-04-30 14:34 | 47.56695 | 7.74549 | 34224 ft | 488 kts | 211° |
| 2026-04-30 14:35 | 47.50734 | 7.68955 | 34220 ft | 487 kts | 211° |
| 2026-04-30 14:36 | 47.45018 | 7.63593 | 34221 ft | 486 kts | 211° |
| 2026-04-30 14:36 | 47.39310 | 7.58255 | 34220 ft | 485 kts | 211° |
| 2026-04-30 14:37 | 47.33598 | 7.52937 | 34217 ft | 484 kts | 211° |
| 2026-04-30 14:37 | 47.27909 | 7.47645 | 34217 ft | 483 kts | 211° |
| 2026-04-30 14:38 | 47.22225 | 7.42365 | 34214 ft | 483 kts | 211° |
| 2026-04-30 14:38 | 47.16724 | 7.36713 | 34211 ft | 483 kts | 222° |
| 2026-04-30 14:39 | 47.12336 | 7.29350 | 34213 ft | 483 kts | 232° |
| 2026-04-30 14:39 | 47.08153 | 7.21635 | 34210 ft | 482 kts | 231° |
| 2026-04-30 14:40 | 47.01855 | 7.10119 | 34222 ft | 482 kts | 231° |
| 2026-04-30 14:40 | 46.97663 | 7.02452 | 34206 ft | 482 kts | 231° |
| 2026-04-30 14:41 | 46.93463 | 6.94801 | 34211 ft | 482 kts | 231° |
| 2026-04-30 14:41 | 46.88811 | 6.87809 | 34211 ft | 480 kts | 218° |
| 2026-04-30 14:42 | 46.83629 | 6.81650 | 34215 ft | 480 kts | 218° |
| 2026-04-30 14:42 | 46.78452 | 6.75488 | 34217 ft | 480 kts | 218° |
| 2026-04-30 14:43 | 46.73284 | 6.69343 | 34217 ft | 479 kts | 218° |
| 2026-04-30 14:43 | 46.68121 | 6.63220 | 34211 ft | 478 kts | 218° |
| 2026-04-30 14:44 | 46.63005 | 6.57170 | 34204 ft | 476 kts | 218° |
| 2026-04-30 14:44 | 46.57836 | 6.51082 | 34202 ft | 474 kts | 218° |
| 2026-04-30 14:45 | 46.52709 | 6.45070 | 34197 ft | 473 kts | 218° |
| 2026-04-30 14:45 | 46.47593 | 6.39082 | 34195 ft | 472 kts | 219° |
| 2026-04-30 14:46 | 46.42491 | 6.33120 | 34194 ft | 471 kts | 219° |
| 2026-04-30 14:46 | 46.38259 | 6.28169 | 34194 ft | 470 kts | 219° |
| 2026-04-30 14:47 | 46.32352 | 6.21287 | 34196 ft | 468 kts | 219° |
| 2026-04-30 14:47 | 46.27137 | 6.15681 | 34198 ft | 467 kts | 209° |
| 2026-04-30 14:48 | 46.21110 | 6.12313 | 34191 ft | 465 kts | 191° |
| 2026-04-30 14:48 | 46.14713 | 6.10851 | 34188 ft | 465 kts | 188° |
| 2026-04-30 14:49 | 46.08324 | 6.09436 | 34184 ft | 465 kts | 189° |
| 2026-04-30 14:49 | 46.01925 | 6.08011 | 34158 ft | 465 kts | 189° |
| 2026-04-30 14:50 | 45.92319 | 6.05882 | 34159 ft | 465 kts | 189° |
| 2026-04-30 14:51 | 45.82720 | 6.03771 | 34162 ft | 465 kts | 190° |
| 2026-04-30 14:52 | 45.73134 | 6.01650 | 34135 ft | 464 kts | 190° |
| 2026-04-30 14:52 | 45.63603 | 5.99560 | 34131 ft | 464 kts | 190° |
| 2026-04-30 14:53 | 45.54032 | 5.97457 | 34141 ft | 463 kts | 191° |
| 2026-04-30 14:54 | 45.47977 | 5.94601 | 34146 ft | 457 kts | 210° |
| 2026-04-30 14:54 | 45.42948 | 5.89207 | 34150 ft | 453 kts | 227° |
| 2026-04-30 14:55 | 45.36300 | 5.79651 | 34152 ft | 453 kts | 226° |
| 2026-04-30 14:56 | 45.27408 | 5.66997 | 34152 ft | 453 kts | 226° |
| 2026-04-30 14:57 | 45.20729 | 5.57498 | 34152 ft | 454 kts | 226° |
| 2026-04-30 14:58 | 45.11811 | 5.44884 | 34159 ft | 455 kts | 225° |
| 2026-04-30 14:58 | 45.05084 | 5.35400 | 34169 ft | 455 kts | 225° |
| 2026-04-30 15:00 | 44.94596 | 5.20679 | 34180 ft | 456 kts | 225° |
| 2026-04-30 15:01 | 44.85556 | 5.08084 | 34183 ft | 457 kts | 225° |
| 2026-04-30 15:01 | 44.78757 | 4.98639 | 34185 ft | 458 kts | 225° |
| 2026-04-30 15:02 | 44.74219 | 4.92360 | 34186 ft | 458 kts | 224° |
| 2026-04-30 15:03 | 44.64408 | 4.74926 | 34194 ft | 455 kts | 232° |
| 2026-04-30 15:04 | 44.54869 | 4.57357 | 34198 ft | 450 kts | 232° |